Kent, Iowa
Current Conditions -  °F | °C
As of 12:15 PM on Friday 24 Oct 2014 (Local Time) from KCSQ Reporting Station
Haze Haze  
Wind Chill: 61°   Ceiling: 400
Heat Index: 61°   Visibility: 2.5mi
Dew Point: 61°   Wind: 15mph
Humidity: 100%   Direction: 190°S
Pressure: 29.96"   Gusts: NA
Location:  40.8856°N, 94.5654°W
Report Text: KCSQ 241715Z AUTO 19013KT 2 1/2SM BR OVC004 16/16 A2996 RMK AO2
Loading
Personal Weather Stations






























Interactive Weather Map
Tropical Storm Tracking
New forecast layout! Learn more

10-Day Weather Forecast

Advertisements
Track Severe Weather on mobile